sensor_id;sensor_type;location;lat;lon;timestamp;temperature;humidity
14993;DHT22;7592;51.088;13.732;2022-07-06T00:02:46;18.60;99.90
14993;DHT22;7592;51.088;13.732;2022-07-06T00:07:38;18.50;99.90
14993;DHT22;7592;51.088;13.732;2022-07-06T00:12:31;18.40;99.90
14993;DHT22;7592;51.088;13.732;2022-07-06T00:17:23;18.20;99.90
14993;DHT22;7592;51.088;13.732;2022-07-06T00:22:16;18.10;99.90
14993;DHT22;7592;51.088;13.732;2022-07-06T00:27:08;18.10;99.90
14993;DHT22;7592;51.088;13.732;2022-07-06T00:32:00;18.10;99.90
14993;DHT22;7592;51.088;13.732;2022-07-06T00:36:53;17.90;99.90
14993;DHT22;7592;51.088;13.732;2022-07-06T00:41:45;17.90;99.90
14993;DHT22;7592;51.088;13.732;2022-07-06T00:46:37;18.10;99.90
14993;DHT22;7592;51.088;13.732;2022-07-06T00:51:31;18.20;99.90
14993;DHT22;7592;51.088;13.732;2022-07-06T00:56:24;18.10;99.90
14993;DHT22;7592;51.088;13.732;2022-07-06T01:01:18;18.10;99.90
14993;DHT22;7592;51.088;13.732;2022-07-06T01:06:11;17.80;99.90
14993;DHT22;7592;51.088;13.732;2022-07-06T01:11:04;17.60;99.90
14993;DHT22;7592;51.088;13.732;2022-07-06T01:15:56;17.60;99.90
14993;DHT22;7592;51.088;13.732;2022-07-06T01:20:49;17.60;99.90
14993;DHT22;7592;51.088;13.732;2022-07-06T01:25:41;17.80;99.90
14993;DHT22;7592;51.088;13.732;2022-07-06T01:30:33;17.90;99.90
14993;DHT22;7592;51.088;13.732;2022-07-06T01:35:29;17.80;99.90
14993;DHT22;7592;51.088;13.732;2022-07-06T01:40:21;17.80;99.90
14993;DHT22;7592;51.088;13.732;2022-07-06T01:45:14;17.70;99.90
14993;DHT22;7592;51.088;13.732;2022-07-06T01:50:08;17.70;99.90
14993;DHT22;7592;51.088;13.732;2022-07-06T01:55:05;17.80;99.90
14993;DHT22;7592;51.088;13.732;2022-07-06T02:00:00;17.80;99.90
14993;DHT22;7592;51.088;13.732;2022-07-06T02:05:04;17.70;99.90
14993;DHT22;7592;51.088;13.732;2022-07-06T02:09:57;17.60;99.90
14993;DHT22;7592;51.088;13.732;2022-07-06T02:14:49;17.40;99.90
14993;DHT22;7592;51.088;13.732;2022-07-06T02:19:42;17.30;99.90
14993;DHT22;7592;51.088;13.732;2022-07-06T02:24:34;17.10;99.90
14993;DHT22;7592;51.088;13.732;2022-07-06T02:29:28;17.10;99.90
14993;DHT22;7592;51.088;13.732;2022-07-06T02:34:21;17.10;99.90
14993;DHT22;7592;51.088;13.732;2022-07-06T02:39:14;17.10;99.90
14993;DHT22;7592;51.088;13.732;2022-07-06T02:44:08;17.20;99.90
14993;DHT22;7592;51.088;13.732;2022-07-06T02:49:03;17.10;99.90
14993;DHT22;7592;51.088;13.732;2022-07-06T02:53:56;17.00;99.90
14993;DHT22;7592;51.088;13.732;2022-07-06T02:58:48;16.80;99.90
14993;DHT22;7592;51.088;13.732;2022-07-06T03:03:40;16.60;99.90
14993;DHT22;7592;51.088;13.732;2022-07-06T03:08:33;16.60;99.90
14993;DHT22;7592;51.088;13.732;2022-07-06T03:13:27;16.50;99.90
14993;DHT22;7592;51.088;13.732;2022-07-06T03:18:20;16.60;99.90
14993;DHT22;7592;51.088;13.732;2022-07-06T03:23:14;16.70;99.90
14993;DHT22;7592;51.088;13.732;2022-07-06T03:28:06;16.60;99.90
14993;DHT22;7592;51.088;13.732;2022-07-06T03:32:59;16.50;99.90
14993;DHT22;7592;51.088;13.732;2022-07-06T03:37:53;16.60;99.90
14993;DHT22;7592;51.088;13.732;2022-07-06T03:42:47;17.00;99.90
14993;DHT22;7592;51.088;13.732;2022-07-06T03:47:40;17.10;99.90
14993;DHT22;7592;51.088;13.732;2022-07-06T03:52:35;17.10;99.90
14993;DHT22;7592;51.088;13.732;2022-07-06T03:57:32;17.20;99.90
14993;DHT22;7592;51.088;13.732;2022-07-06T04:02:27;17.30;99.90
14993;DHT22;7592;51.088;13.732;2022-07-06T04:07:20;17.40;99.90
14993;DHT22;7592;51.088;13.732;2022-07-06T04:12:13;17.50;99.90
14993;DHT22;7592;51.088;13.732;2022-07-06T04:17:08;17.70;99.90
14993;DHT22;7592;51.088;13.732;2022-07-06T04:22:40;17.70;99.90
14993;DHT22;7592;51.088;13.732;2022-07-06T04:27:32;17.80;99.90
14993;DHT22;7592;51.088;13.732;2022-07-06T04:32:27;18.10;99.90
14993;DHT22;7592;51.088;13.732;2022-07-06T04:37:21;18.80;99.90
14993;DHT22;7592;51.088;13.732;2022-07-06T04:42:21;19.50;99.90
14993;DHT22;7592;51.088;13.732;2022-07-06T04:47:14;20.30;99.90
14993;DHT22;7592;51.088;13.732;2022-07-06T04:52:12;22.00;99.90
14993;DHT22;7592;51.088;13.732;2022-07-06T04:57:05;21.70;99.90
14993;DHT22;7592;51.088;13.732;2022-07-06T05:02:04;24.00;99.90
14993;DHT22;7592;51.088;13.732;2022-07-06T05:06:57;26.70;99.90
14993;DHT22;7592;51.088;13.732;2022-07-06T05:11:51;29.60;99.90
14993;DHT22;7592;51.088;13.732;2022-07-06T05:16:44;31.80;94.10
14993;DHT22;7592;51.088;13.732;2022-07-06T05:21:37;33.30;85.40
14993;DHT22;7592;51.088;13.732;2022-07-06T05:26:32;34.90;75.00
14993;DHT22;7592;51.088;13.732;2022-07-06T05:31:25;36.10;69.10
14993;DHT22;7592;51.088;13.732;2022-07-06T05:36:17;33.40;69.80
14993;DHT22;7592;51.088;13.732;2022-07-06T05:41:10;30.00;79.30
14993;DHT22;7592;51.088;13.732;2022-07-06T05:46:04;31.20;76.50
14993;DHT22;7592;51.088;13.732;2022-07-06T05:50:59;31.90;74.60
14993;DHT22;7592;51.088;13.732;2022-07-06T05:55:52;34.30;68.70
14993;DHT22;7592;51.088;13.732;2022-07-06T06:00:46;36.70;62.70
14993;DHT22;7592;51.088;13.732;2022-07-06T06:05:43;38.80;58.20
14993;DHT22;7592;51.088;13.732;2022-07-06T06:10:38;40.40;56.00
14993;DHT22;7592;51.088;13.732;2022-07-06T06:15:34;40.40;51.50
14993;DHT22;7592;51.088;13.732;2022-07-06T06:20:29;41.30;50.80
14993;DHT22;7592;51.088;13.732;2022-07-06T06:25:34;42.20;48.70
14993;DHT22;7592;51.088;13.732;2022-07-06T06:30:26;43.00;47.50
14993;DHT22;7592;51.088;13.732;2022-07-06T06:35:19;41.80;48.20
14993;DHT22;7592;51.088;13.732;2022-07-06T06:40:12;43.30;46.90
14993;DHT22;7592;51.088;13.732;2022-07-06T06:45:06;43.00;46.20
14993;DHT22;7592;51.088;13.732;2022-07-06T06:50:00;42.10;45.10
14993;DHT22;7592;51.088;13.732;2022-07-06T06:54:52;41.60;45.40
14993;DHT22;7592;51.088;13.732;2022-07-06T06:59:46;40.80;46.30
14993;DHT22;7592;51.088;13.732;2022-07-06T07:04:38;42.00;45.80
14993;DHT22;7592;51.088;13.732;2022-07-06T07:09:31;40.10;45.90
14993;DHT22;7592;51.088;13.732;2022-07-06T07:14:23;36.70;49.90
14993;DHT22;7592;51.088;13.732;2022-07-06T07:19:15;34.80;52.30
14993;DHT22;7592;51.088;13.732;2022-07-06T07:24:07;32.90;53.90
14993;DHT22;7592;51.088;13.732;2022-07-06T07:29:01;31.90;56.60
14993;DHT22;7592;51.088;13.732;2022-07-06T07:33:53;30.30;56.50
14993;DHT22;7592;51.088;13.732;2022-07-06T07:38:50;28.40;60.60
14993;DHT22;7592;51.088;13.732;2022-07-06T07:43:43;28.40;61.00
14993;DHT22;7592;51.088;13.732;2022-07-06T07:48:35;28.60;61.00
14993;DHT22;7592;51.088;13.732;2022-07-06T07:53:28;29.20;60.20
14993;DHT22;7592;51.088;13.732;2022-07-06T07:58:20;30.10;58.30
14993;DHT22;7592;51.088;13.732;2022-07-06T08:03:13;30.10;57.70
14993;DHT22;7592;51.088;13.732;2022-07-06T08:08:05;29.50;58.80
14993;DHT22;7592;51.088;13.732;2022-07-06T08:12:57;27.60;58.70
14993;DHT22;7592;51.088;13.732;2022-07-06T08:17:49;26.60;59.80
14993;DHT22;7592;51.088;13.732;2022-07-06T08:22:42;26.60;60.30
14993;DHT22;7592;51.088;13.732;2022-07-06T08:27:35;27.30;61.00
14993;DHT22;7592;51.088;13.732;2022-07-06T08:32:27;30.30;57.70
14993;DHT22;7592;51.088;13.732;2022-07-06T08:37:40;34.40;51.30
14993;DHT22;7592;51.088;13.732;2022-07-06T08:42:33;37.10;48.40
14993;DHT22;7592;51.088;13.732;2022-07-06T08:47:27;39.60;45.40
14993;DHT22;7592;51.088;13.732;2022-07-06T08:52:22;37.30;45.80
14993;DHT22;7592;51.088;13.732;2022-07-06T08:57:15;34.90;49.00
14993;DHT22;7592;51.088;13.732;2022-07-06T09:02:10;33.50;49.50
14993;DHT22;7592;51.088;13.732;2022-07-06T09:07:03;33.50;50.70
14993;DHT22;7592;51.088;13.732;2022-07-06T09:11:56;33.10;50.40
14993;DHT22;7592;51.088;13.732;2022-07-06T09:17:04;34.30;48.90
14993;DHT22;7592;51.088;13.732;2022-07-06T09:21:57;33.30;50.00
14993;DHT22;7592;51.088;13.732;2022-07-06T09:26:49;32.00;51.40
14993;DHT22;7592;51.088;13.732;2022-07-06T09:31:41;31.50;51.20
14993;DHT22;7592;51.088;13.732;2022-07-06T09:41:32;32.80;49.40
14993;DHT22;7592;51.088;13.732;2022-07-06T09:46:25;37.30;46.20
14993;DHT22;7592;51.088;13.732;2022-07-06T09:51:17;40.80;42.80
14993;DHT22;7592;51.088;13.732;2022-07-06T09:56:18;40.90;42.50
14993;DHT22;7592;51.088;13.732;2022-07-06T10:01:28;42.80;41.30
14993;DHT22;7592;51.088;13.732;2022-07-06T10:06:29;40.80;41.80
14993;DHT22;7592;51.088;13.732;2022-07-06T10:11:24;42.00;41.10
14993;DHT22;7592;51.088;13.732;2022-07-06T10:16:18;41.00;40.20
14993;DHT22;7592;51.088;13.732;2022-07-06T10:21:11;39.70;41.80
14993;DHT22;7592;51.088;13.732;2022-07-06T10:26:06;41.80;40.70
14993;DHT22;7592;51.088;13.732;2022-07-06T10:31:05;41.50;39.90
14993;DHT22;7592;51.088;13.732;2022-07-06T10:36:02;36.80;44.20
14993;DHT22;7592;51.088;13.732;2022-07-06T10:41:03;36.20;45.60
14993;DHT22;7592;51.088;13.732;2022-07-06T10:46:08;39.30;43.10
14993;DHT22;7592;51.088;13.732;2022-07-06T10:51:02;38.00;41.80
14993;DHT22;7592;51.088;13.732;2022-07-06T10:56:03;35.50;44.90
14993;DHT22;7592;51.088;13.732;2022-07-06T11:00:59;33.50;46.30
14993;DHT22;7592;51.088;13.732;2022-07-06T11:06:00;33.50;46.80
14993;DHT22;7592;51.088;13.732;2022-07-06T11:11:12;34.70;46.70
14993;DHT22;7592;51.088;13.732;2022-07-06T11:16:05;33.20;46.50
14993;DHT22;7592;51.088;13.732;2022-07-06T11:21:20;32.60;48.40
14993;DHT22;7592;51.088;13.732;2022-07-06T11:26:15;33.40;48.10
14993;DHT22;7592;51.088;13.732;2022-07-06T11:31:11;37.00;44.10
14993;DHT22;7592;51.088;13.732;2022-07-06T11:36:20;36.00;44.50
14993;DHT22;7592;51.088;13.732;2022-07-06T11:41:17;33.50;47.50
14993;DHT22;7592;51.088;13.732;2022-07-06T11:46:22;32.60;47.80
14993;DHT22;7592;51.088;13.732;2022-07-06T11:51:15;31.40;49.50
14993;DHT22;7592;51.088;13.732;2022-07-06T11:56:08;29.20;51.20
14993;DHT22;7592;51.088;13.732;2022-07-06T12:01:08;28.50;52.20
14993;DHT22;7592;51.088;13.732;2022-07-06T12:06:05;28.70;53.10
14993;DHT22;7592;51.088;13.732;2022-07-06T12:10:58;29.20;52.00
14993;DHT22;7592;51.088;13.732;2022-07-06T12:15:51;28.90;51.40
14993;DHT22;7592;51.088;13.732;2022-07-06T12:20:43;28.50;52.50
14993;DHT22;7592;51.088;13.732;2022-07-06T12:25:37;28.20;52.50
14993;DHT22;7592;51.088;13.732;2022-07-06T12:30:30;28.20;53.00
14993;DHT22;7592;51.088;13.732;2022-07-06T12:35:27;27.60;52.60
14993;DHT22;7592;51.088;13.732;2022-07-06T12:40:26;27.90;54.00
14993;DHT22;7592;51.088;13.732;2022-07-06T12:45:19;28.20;52.30
14993;DHT22;7592;51.088;13.732;2022-07-06T12:50:20;28.20;52.50
14993;DHT22;7592;51.088;13.732;2022-07-06T12:55:12;27.80;52.40
14993;DHT22;7592;51.088;13.732;2022-07-06T13:00:10;27.30;52.30
14993;DHT22;7592;51.088;13.732;2022-07-06T13:05:10;27.50;52.50
14993;DHT22;7592;51.088;13.732;2022-07-06T13:10:05;27.00;53.00
14993;DHT22;7592;51.088;13.732;2022-07-06T13:15:01;26.70;52.90
14993;DHT22;7592;51.088;13.732;2022-07-06T13:19:55;27.30;53.00
14993;DHT22;7592;51.088;13.732;2022-07-06T13:24:48;28.10;51.90
14993;DHT22;7592;51.088;13.732;2022-07-06T13:29:40;28.00;51.80
14993;DHT22;7592;51.088;13.732;2022-07-06T13:34:34;27.90;52.40
14993;DHT22;7592;51.088;13.732;2022-07-06T13:39:29;27.60;52.00
14993;DHT22;7592;51.088;13.732;2022-07-06T13:44:22;27.10;52.90
14993;DHT22;7592;51.088;13.732;2022-07-06T13:49:15;26.80;53.00
14993;DHT22;7592;51.088;13.732;2022-07-06T13:54:08;26.30;53.80
14993;DHT22;7592;51.088;13.732;2022-07-06T13:59:01;26.10;55.00
14993;DHT22;7592;51.088;13.732;2022-07-06T14:03:56;25.80;54.30
14993;DHT22;7592;51.088;13.732;2022-07-06T14:08:49;25.40;55.50
14993;DHT22;7592;51.088;13.732;2022-07-06T14:13:42;25.60;53.80
14993;DHT22;7592;51.088;13.732;2022-07-06T14:18:34;26.10;53.90
14993;DHT22;7592;51.088;13.732;2022-07-06T14:23:27;26.50;53.90
14993;DHT22;7592;51.088;13.732;2022-07-06T14:28:21;26.60;52.40
14993;DHT22;7592;51.088;13.732;2022-07-06T14:33:16;26.60;52.50
14993;DHT22;7592;51.088;13.732;2022-07-06T14:38:10;26.50;52.40
14993;DHT22;7592;51.088;13.732;2022-07-06T14:43:03;26.20;52.40
14993;DHT22;7592;51.088;13.732;2022-07-06T14:47:56;25.90;53.20
14993;DHT22;7592;51.088;13.732;2022-07-06T14:52:50;26.10;53.80
14993;DHT22;7592;51.088;13.732;2022-07-06T14:57:43;25.80;53.20
14993;DHT22;7592;51.088;13.732;2022-07-06T15:02:36;26.10;53.00
14993;DHT22;7592;51.088;13.732;2022-07-06T15:07:28;25.90;52.70
14993;DHT22;7592;51.088;13.732;2022-07-06T15:12:22;26.40;53.00
14993;DHT22;7592;51.088;13.732;2022-07-06T15:17:15;26.70;52.90
14993;DHT22;7592;51.088;13.732;2022-07-06T15:22:10;26.90;51.80
14993;DHT22;7592;51.088;13.732;2022-07-06T15:27:04;26.80;52.40
14993;DHT22;7592;51.088;13.732;2022-07-06T15:32:00;26.90;52.10
14993;DHT22;7592;51.088;13.732;2022-07-06T15:36:53;27.00;52.30
14993;DHT22;7592;51.088;13.732;2022-07-06T15:41:47;26.70;51.80
14993;DHT22;7592;51.088;13.732;2022-07-06T15:46:40;26.80;52.00
14993;DHT22;7592;51.088;13.732;2022-07-06T15:51:33;26.20;51.70
14993;DHT22;7592;51.088;13.732;2022-07-06T15:56:27;25.40;53.50
14993;DHT22;7592;51.088;13.732;2022-07-06T16:01:19;25.10;54.00
14993;DHT22;7592;51.088;13.732;2022-07-06T16:06:15;25.00;54.50
14993;DHT22;7592;51.088;13.732;2022-07-06T16:11:08;25.00;54.40
14993;DHT22;7592;51.088;13.732;2022-07-06T16:16:00;24.70;54.10
14993;DHT22;7592;51.088;13.732;2022-07-06T16:20:53;24.60;55.00
14993;DHT22;7592;51.088;13.732;2022-07-06T16:25:47;24.60;55.50
14993;DHT22;7592;51.088;13.732;2022-07-06T16:30:40;24.30;55.40
14993;DHT22;7592;51.088;13.732;2022-07-06T16:35:37;24.30;55.30
14993;DHT22;7592;51.088;13.732;2022-07-06T16:40:40;24.50;54.60
14993;DHT22;7592;51.088;13.732;2022-07-06T16:45:33;24.60;54.50
14993;DHT22;7592;51.088;13.732;2022-07-06T16:50:26;24.60;54.70
14993;DHT22;7592;51.088;13.732;2022-07-06T16:55:18;24.40;54.80
14993;DHT22;7592;51.088;13.732;2022-07-06T17:00:14;24.20;55.50
14993;DHT22;7592;51.088;13.732;2022-07-06T17:05:09;23.70;55.00
14993;DHT22;7592;51.088;13.732;2022-07-06T17:10:02;23.40;56.10
14993;DHT22;7592;51.088;13.732;2022-07-06T17:14:59;23.00;56.20
14993;DHT22;7592;51.088;13.732;2022-07-06T17:19:57;22.80;57.50
14993;DHT22;7592;51.088;13.732;2022-07-06T17:24:50;22.60;56.90
14993;DHT22;7592;51.088;13.732;2022-07-06T17:29:43;22.40;58.10
14993;DHT22;7592;51.088;13.732;2022-07-06T17:34:35;22.50;58.50
14993;DHT22;7592;51.088;13.732;2022-07-06T17:39:28;22.50;58.30
14993;DHT22;7592;51.088;13.732;2022-07-06T17:44:21;22.30;58.20
14993;DHT22;7592;51.088;13.732;2022-07-06T17:49:14;22.20;59.40
14993;DHT22;7592;51.088;13.732;2022-07-06T17:54:10;22.00;59.20
14993;DHT22;7592;51.088;13.732;2022-07-06T17:59:05;22.00;59.00
14993;DHT22;7592;51.088;13.732;2022-07-06T18:03:58;22.10;59.70
14993;DHT22;7592;51.088;13.732;2022-07-06T18:08:51;22.40;59.00
14993;DHT22;7592;51.088;13.732;2022-07-06T18:13:43;22.30;59.10
14993;DHT22;7592;51.088;13.732;2022-07-06T18:18:38;22.30;59.80
14993;DHT22;7592;51.088;13.732;2022-07-06T18:23:31;22.20;59.60
14993;DHT22;7592;51.088;13.732;2022-07-06T18:28:24;22.00;59.60
14993;DHT22;7592;51.088;13.732;2022-07-06T18:33:20;21.90;60.20
14993;DHT22;7592;51.088;13.732;2022-07-06T18:38:19;21.80;60.40
14993;DHT22;7592;51.088;13.732;2022-07-06T18:43:13;21.60;60.50
14993;DHT22;7592;51.088;13.732;2022-07-06T18:48:08;21.40;62.30
14993;DHT22;7592;51.088;13.732;2022-07-06T18:53:03;21.30;62.20
14993;DHT22;7592;51.088;13.732;2022-07-06T18:57:57;21.30;62.40
14993;DHT22;7592;51.088;13.732;2022-07-06T19:02:50;21.30;62.40
14993;DHT22;7592;51.088;13.732;2022-07-06T19:07:43;21.20;62.70
14993;DHT22;7592;51.088;13.732;2022-07-06T19:12:35;21.00;62.10
14993;DHT22;7592;51.088;13.732;2022-07-06T19:17:28;20.90;62.90
14993;DHT22;7592;51.088;13.732;2022-07-06T19:22:20;20.80;63.50
14993;DHT22;7592;51.088;13.732;2022-07-06T19:27:13;20.90;63.80
14993;DHT22;7592;51.088;13.732;2022-07-06T19:32:06;20.90;64.10
14993;DHT22;7592;51.088;13.732;2022-07-06T19:37:03;20.90;63.20
14993;DHT22;7592;51.088;13.732;2022-07-06T19:41:55;20.80;63.60
14993;DHT22;7592;51.088;13.732;2022-07-06T19:46:48;20.70;64.20
14993;DHT22;7592;51.088;13.732;2022-07-06T19:51:41;20.80;64.70
14993;DHT22;7592;51.088;13.732;2022-07-06T19:56:34;20.70;64.90
14993;DHT22;7592;51.088;13.732;2022-07-06T20:01:26;20.70;64.40
14993;DHT22;7592;51.088;13.732;2022-07-06T20:06:19;20.60;65.60
14993;DHT22;7592;51.088;13.732;2022-07-06T20:11:19;20.40;66.00
14993;DHT22;7592;51.088;13.732;2022-07-06T20:16:11;20.30;66.20
14993;DHT22;7592;51.088;13.732;2022-07-06T20:21:07;20.10;65.80
14993;DHT22;7592;51.088;13.732;2022-07-06T20:25:59;19.90;66.80
14993;DHT22;7592;51.088;13.732;2022-07-06T20:30:52;19.80;67.60
14993;DHT22;7592;51.088;13.732;2022-07-06T20:35:45;19.70;66.80
14993;DHT22;7592;51.088;13.732;2022-07-06T20:40:37;19.70;67.40
14993;DHT22;7592;51.088;13.732;2022-07-06T20:45:30;19.80;67.60
14993;DHT22;7592;51.088;13.732;2022-07-06T20:50:23;19.80;68.00
14993;DHT22;7592;51.088;13.732;2022-07-06T20:55:16;19.70;68.50
14993;DHT22;7592;51.088;13.732;2022-07-06T21:00:09;19.60;68.60
14993;DHT22;7592;51.088;13.732;2022-07-06T21:05:03;19.60;68.50
14993;DHT22;7592;51.088;13.732;2022-07-06T21:09:56;19.50;68.40
14993;DHT22;7592;51.088;13.732;2022-07-06T21:14:48;19.40;68.90
14993;DHT22;7592;51.088;13.732;2022-07-06T21:19:42;19.40;69.80
14993;DHT22;7592;51.088;13.732;2022-07-06T21:24:34;19.40;70.00
14993;DHT22;7592;51.088;13.732;2022-07-06T21:29:28;19.40;69.70
14993;DHT22;7592;51.088;13.732;2022-07-06T21:34:21;19.30;70.20
14993;DHT22;7592;51.088;13.732;2022-07-06T21:39:13;19.30;71.20
14993;DHT22;7592;51.088;13.732;2022-07-06T21:44:06;19.30;71.60
14993;DHT22;7592;51.088;13.732;2022-07-06T21:48:58;19.30;72.20
14993;DHT22;7592;51.088;13.732;2022-07-06T21:53:51;19.20;71.90
14993;DHT22;7592;51.088;13.732;2022-07-06T21:58:43;19.00;72.60
14993;DHT22;7592;51.088;13.732;2022-07-06T22:03:36;18.80;73.10
14993;DHT22;7592;51.088;13.732;2022-07-06T22:08:29;18.70;73.90
14993;DHT22;7592;51.088;13.732;2022-07-06T22:13:22;18.50;74.70
14993;DHT22;7592;51.088;13.732;2022-07-06T22:18:33;18.30;75.60
14993;DHT22;7592;51.088;13.732;2022-07-06T22:23:26;18.00;77.10
14993;DHT22;7592;51.088;13.732;2022-07-06T22:28:19;17.70;77.10
14993;DHT22;7592;51.088;13.732;2022-07-06T22:33:12;17.50;77.90
14993;DHT22;7592;51.088;13.732;2022-07-06T22:38:04;17.30;79.50
14993;DHT22;7592;51.088;13.732;2022-07-06T22:42:57;17.10;80.00
14993;DHT22;7592;51.088;13.732;2022-07-06T22:47:51;16.90;80.50
14993;DHT22;7592;51.088;13.732;2022-07-06T22:52:43;16.80;82.00
14993;DHT22;7592;51.088;13.732;2022-07-06T22:57:39;16.70;83.00
14993;DHT22;7592;51.088;13.732;2022-07-06T23:02:32;16.60;83.90
14993;DHT22;7592;51.088;13.732;2022-07-06T23:07:25;16.40;86.30
14993;DHT22;7592;51.088;13.732;2022-07-06T23:12:17;16.30;87.50
14993;DHT22;7592;51.088;13.732;2022-07-06T23:17:16;16.20;89.10
14993;DHT22;7592;51.088;13.732;2022-07-06T23:22:08;16.20;90.20
14993;DHT22;7592;51.088;13.732;2022-07-06T23:27:02;16.10;90.60
14993;DHT22;7592;51.088;13.732;2022-07-06T23:31:54;16.00;91.50
14993;DHT22;7592;51.088;13.732;2022-07-06T23:36:47;15.90;92.80
14993;DHT22;7592;51.088;13.732;2022-07-06T23:41:40;15.80;95.50
14993;DHT22;7592;51.088;13.732;2022-07-06T23:46:33;15.70;96.40
14993;DHT22;7592;51.088;13.732;2022-07-06T23:51:26;15.70;99.20
14993;DHT22;7592;51.088;13.732;2022-07-06T23:56:23;15.70;99.90
